Time;durP1;ratioP1;P1;durP2;ratioP2;P2;SDS_P1;SDS_P2;PMS_P1;PMS_P2;Temp;Humidity;BMP_temperature;BMP_pressure;BME280_temperature;BME280_humidity;BME280_pressure;Samples;Min_cycle;Max_cycle;Signal;HPM_P1;HPM_P2
2022/02/15 00:00:33;;;;;;;;;;;18.90;39.60;;;;;;5073044;28;19995;-64
2022/02/15 00:02:58;;;;;;;;;;;18.90;39.60;;;;;;5072952;28;20363;-64
2022/02/15 00:05:24;;;;;;;;;;;18.80;39.60;;;;;;5073433;28;20034;-65
2022/02/15 00:07:50;;;;;;;;;;;18.90;39.60;;;;;;5071764;28;19912;-65
2022/02/15 00:10:15;;;;;;;;;;;18.90;39.60;;;;;;5073336;28;19908;-64
2022/02/15 00:12:41;;;;;;;;;;;18.80;39.60;;;;;;5073119;28;19962;-65
2022/02/15 00:15:08;;;;;;;;;;;18.80;39.60;;;;;;5072815;28;20352;-65
2022/02/15 00:17:34;;;;;;;;;;;18.80;39.60;;;;;;5072859;28;19909;-65
2022/02/15 00:20:00;;;;;;;;;;;18.80;39.60;;;;;;5073026;28;19912;-65
2022/02/15 00:22:25;;;;;;;;;;;18.80;39.60;;;;;;5071668;28;19915;-64
2022/02/15 00:24:51;;;;;;;;;;;18.80;39.60;;;;;;5073222;28;20372;-65
2022/02/15 00:27:16;;;;;;;;;;;18.80;39.60;;;;;;5072951;28;19916;-65
2022/02/15 00:29:41;;;;;;;;;;;18.80;39.60;;;;;;5088555;28;19951;-65
2022/02/15 00:32:07;;;;;;;;;;;18.90;39.60;;;;;;5073448;28;19970;-65
2022/02/15 00:34:34;;;;;;;;;;;18.80;39.60;;;;;;5072796;28;19909;-64
2022/02/15 00:37:00;;;;;;;;;;;18.80;39.60;;;;;;5072755;28;19966;-65
2022/02/15 00:39:26;;;;;;;;;;;18.80;39.60;;;;;;5072798;28;19944;-64
2022/02/15 00:41:51;;;;;;;;;;;18.80;39.60;;;;;;5072822;28;19977;-64
2022/02/15 00:44:17;;;;;;;;;;;18.80;39.60;;;;;;5072639;28;20321;-65
2022/02/15 00:46:42;;;;;;;;;;;18.80;39.60;;;;;;5074842;28;19909;-65
2022/02/15 00:49:08;;;;;;;;;;;18.80;39.60;;;;;;5076351;28;19920;-65
2022/02/15 00:51:33;;;;;;;;;;;18.80;39.60;;;;;;5076332;28;20348;-65
2022/02/15 00:53:58;;;;;;;;;;;18.80;39.60;;;;;;5076240;28;19915;-64
2022/02/15 00:56:24;;;;;;;;;;;18.80;39.60;;;;;;5076239;28;19908;-65
2022/02/15 00:58:50;;;;;;;;;;;18.80;39.60;;;;;;5076105;28;19944;-65
2022/02/15 01:01:15;;;;;;;;;;;18.80;39.60;;;;;;5075900;28;19928;-65
2022/02/15 01:03:41;;;;;;;;;;;18.80;39.60;;;;;;5076072;28;19924;-65
2022/02/15 01:06:06;;;;;;;;;;;18.80;39.60;;;;;;5076007;28;19909;-65
2022/02/15 01:08:31;;;;;;;;;;;18.80;39.50;;;;;;5075931;28;20037;-64
2022/02/15 01:10:57;;;;;;;;;;;18.80;39.60;;;;;;5075882;28;19909;-65
2022/02/15 01:13:22;;;;;;;;;;;18.70;39.60;;;;;;5075756;28;19908;-65
2022/02/15 01:15:48;;;;;;;;;;;18.70;39.60;;;;;;5075743;28;19916;-64
2022/02/15 01:18:13;;;;;;;;;;;18.70;39.60;;;;;;5075671;28;20000;-64
2022/02/15 01:20:39;;;;;;;;;;;18.70;39.60;;;;;;5075676;28;19912;-64
2022/02/15 01:23:04;;;;;;;;;;;18.80;39.50;;;;;;5075607;28;19931;-65
2022/02/15 01:25:29;;;;;;;;;;;18.70;39.50;;;;;;5075602;28;19995;-64
2022/02/15 01:27:55;;;;;;;;;;;18.70;39.50;;;;;;5075558;28;19916;-65
2022/02/15 01:30:21;;;;;;;;;;;18.70;39.60;;;;;;5075382;28;20371;-64
2022/02/15 01:32:47;;;;;;;;;;;18.80;39.50;;;;;;5075511;28;19915;-64
2022/02/15 01:35:13;;;;;;;;;;;18.70;39.50;;;;;;5075415;28;19909;-64
2022/02/15 01:37:38;;;;;;;;;;;18.80;39.50;;;;;;5075686;28;20256;-64
2022/02/15 01:40:04;;;;;;;;;;;18.70;39.50;;;;;;5075368;28;19947;-64
2022/02/15 01:42:30;;;;;;;;;;;18.70;39.50;;;;;;5075221;28;19913;-64
2022/02/15 01:44:55;;;;;;;;;;;18.70;39.60;;;;;;5075121;28;19924;-64
2022/02/15 01:47:24;;;;;;;;;;;18.70;39.50;;;;;;5075468;28;19909;-64
2022/02/15 01:49:50;;;;;;;;;;;18.70;39.60;;;;;;5075402;28;19920;-64
2022/02/15 01:52:16;;;;;;;;;;;18.70;39.60;;;;;;5075436;28;19909;-64
2022/02/15 01:54:41;;;;;;;;;;;18.70;39.50;;;;;;5075159;28;19909;-64
2022/02/15 01:57:07;;;;;;;;;;;18.70;39.50;;;;;;5073729;28;20438;-64
2022/02/15 01:59:32;;;;;;;;;;;18.70;39.50;;;;;;5074871;28;19954;-64
2022/02/15 02:01:58;;;;;;;;;;;18.70;39.50;;;;;;5074842;28;19920;-65
2022/02/15 02:07:08;;;;;;;;;;;18.70;39.50;;;;;;5074957;28;19916;-65
2022/02/15 02:09:33;;;;;;;;;;;18.70;39.50;;;;;;5075025;28;19912;-64
2022/02/15 02:11:59;;;;;;;;;;;18.70;39.50;;;;;;5074700;28;19908;-65
2022/02/15 02:14:24;;;;;;;;;;;18.70;39.50;;;;;;5074996;28;19970;-65
2022/02/15 02:16:50;;;;;;;;;;;18.70;39.50;;;;;;5073408;28;19908;-65
2022/02/15 02:19:15;;;;;;;;;;;18.70;39.50;;;;;;5074611;28;19954;-65
2022/02/15 02:21:41;;;;;;;;;;;18.70;39.50;;;;;;5090196;28;19908;-65
2022/02/15 02:24:06;;;;;;;;;;;18.70;39.50;;;;;;5074437;28;19916;-65
2022/02/15 02:26:32;;;;;;;;;;;18.70;39.50;;;;;;5074439;28;20339;-65
2022/02/15 02:28:58;;;;;;;;;;;18.60;39.50;;;;;;5074375;28;20437;-65
2022/02/15 02:31:23;;;;;;;;;;;18.70;39.50;;;;;;5074355;28;19952;-65
2022/02/15 02:33:49;;;;;;;;;;;18.70;39.50;;;;;;5074340;28;19994;-64
2022/02/15 02:36:14;;;;;;;;;;;18.70;39.50;;;;;;5074396;28;20294;-65
2022/02/15 02:38:39;;;;;;;;;;;18.70;39.50;;;;;;5074322;28;19956;-65
2022/02/15 02:41:05;;;;;;;;;;;18.60;39.50;;;;;;5074190;28;20007;-64
2022/02/15 02:43:31;;;;;;;;;;;18.60;39.50;;;;;;5074303;28;20026;-66
2022/02/15 02:45:56;;;;;;;;;;;18.60;39.50;;;;;;5074412;28;19912;-65
2022/02/15 02:48:22;;;;;;;;;;;18.70;39.50;;;;;;5074353;28;19908;-65
2022/02/15 02:50:48;;;;;;;;;;;18.70;39.50;;;;;;5072761;28;19909;-66
2022/02/15 02:53:16;;;;;;;;;;;18.60;39.50;;;;;;5074017;28;19909;-66
2022/02/15 02:55:41;;;;;;;;;;;18.60;39.50;;;;;;5072671;28;19908;-64
2022/02/15 02:58:07;;;;;;;;;;;18.60;39.50;;;;;;5089449;28;19916;-65
2022/02/15 03:00:32;;;;;;;;;;;18.60;39.50;;;;;;5073605;28;19915;-65
2022/02/15 03:03:00;;;;;;;;;;;18.60;39.50;;;;;;5073717;28;19923;-64
2022/02/15 03:05:25;;;;;;;;;;;18.60;39.50;;;;;;5073967;28;20403;-65
2022/02/15 03:07:51;;;;;;;;;;;18.60;39.50;;;;;;5073563;28;19908;-65
2022/02/15 03:10:18;;;;;;;;;;;18.70;39.50;;;;;;5072635;28;22359;-64
2022/02/15 03:12:43;;;;;;;;;;;18.60;39.50;;;;;;5073687;28;19909;-66
2022/02/15 03:15:09;;;;;;;;;;;18.60;39.50;;;;;;5073796;28;19947;-64
2022/02/15 03:17:34;;;;;;;;;;;18.60;39.50;;;;;;5073568;28;19912;-65
2022/02/15 03:20:00;;;;;;;;;;;18.60;39.50;;;;;;5073870;28;19912;-65
2022/02/15 03:22:25;;;;;;;;;;;18.60;39.50;;;;;;5073926;28;20367;-65
2022/02/15 03:24:51;;;;;;;;;;;18.60;39.50;;;;;;5073324;28;19924;-65
2022/02/15 03:27:16;;;;;;;;;;;18.60;39.50;;;;;;5073405;28;20288;-65
2022/02/15 03:29:42;;;;;;;;;;;18.60;39.50;;;;;;5073528;28;19943;-66
2022/02/15 03:32:07;;;;;;;;;;;18.60;39.50;;;;;;5073293;28;19909;-64
2022/02/15 03:34:33;;;;;;;;;;;18.60;39.50;;;;;;5073380;28;19909;-65
2022/02/15 03:36:58;;;;;;;;;;;18.60;39.50;;;;;;5073405;28;19915;-65
2022/02/15 03:39:23;;;;;;;;;;;18.60;39.60;;;;;;5073316;28;19909;-65
2022/02/15 03:44:33;;;;;;;;;;;18.60;39.60;;;;;;5073182;28;19939;-64
2022/02/15 03:46:59;;;;;;;;;;;18.60;39.60;;;;;;5073141;28;20372;-65
2022/02/15 03:49:24;;;;;;;;;;;18.60;39.50;;;;;;5073074;28;19944;-65
2022/02/15 03:51:50;;;;;;;;;;;18.60;39.50;;;;;;5073167;28;19912;-65
2022/02/15 03:54:15;;;;;;;;;;;18.60;39.50;;;;;;5073000;28;19908;-65
2022/02/15 03:56:41;;;;;;;;;;;18.60;39.50;;;;;;5072900;28;19959;-65
2022/02/15 03:59:06;;;;;;;;;;;18.60;39.50;;;;;;5073040;28;19955;-65
2022/02/15 04:01:32;;;;;;;;;;;18.60;39.50;;;;;;5072996;28;20269;-65
2022/02/15 04:03:58;;;;;;;;;;;18.60;39.50;;;;;;5071656;28;19927;-65
2022/02/15 04:06:23;;;;;;;;;;;18.60;39.50;;;;;;5071803;28;19946;-65
2022/02/15 04:08:49;;;;;;;;;;;18.60;39.50;;;;;;5088540;28;19928;-65
2022/02/15 04:11:14;;;;;;;;;;;18.60;39.50;;;;;;5072973;28;19915;-65
2022/02/15 04:13:40;;;;;;;;;;;18.60;39.50;;;;;;5073071;28;19912;-64
2022/02/15 04:16:06;;;;;;;;;;;18.50;39.50;;;;;;5072977;28;19908;-65
2022/02/15 04:18:32;;;;;;;;;;;18.60;39.50;;;;;;5071652;28;19908;-65
2022/02/15 04:20:57;;;;;;;;;;;18.60;39.50;;;;;;5074087;28;19909;-65
2022/02/15 04:23:22;;;;;;;;;;;18.60;39.50;;;;;;5076710;28;20379;-65
2022/02/15 04:25:48;;;;;;;;;;;18.60;39.50;;;;;;5076934;28;19912;-65
2022/02/15 04:28:13;;;;;;;;;;;18.60;39.50;;;;;;5076774;28;20033;-64
2022/02/15 04:30:39;;;;;;;;;;;18.60;39.50;;;;;;5076877;28;20287;-65
2022/02/15 04:33:06;;;;;;;;;;;18.50;39.50;;;;;;5076753;28;19908;-65
2022/02/15 04:35:32;;;;;;;;;;;18.50;39.50;;;;;;5076657;28;19931;-65
2022/02/15 04:37:57;;;;;;;;;;;18.60;39.50;;;;;;5076586;28;20364;-65
2022/02/15 04:40:22;;;;;;;;;;;18.50;39.50;;;;;;5076881;28;20312;-65
2022/02/15 04:42:48;;;;;;;;;;;18.60;39.50;;;;;;5076541;28;19943;-65
2022/02/15 04:45:13;;;;;;;;;;;18.50;39.50;;;;;;5076355;28;19917;-65
2022/02/15 04:47:40;;;;;;;;;;;18.60;39.50;;;;;;5076517;28;19912;-65
2022/02/15 04:50:06;;;;;;;;;;;18.60;39.50;;;;;;5076241;28;20410;-65
2022/02/15 04:52:31;;;;;;;;;;;18.50;39.50;;;;;;5075354;28;19912;-65
2022/02/15 04:54:57;;;;;;;;;;;18.60;39.50;;;;;;5076601;28;20423;-65
2022/02/15 04:57:22;;;;;;;;;;;18.60;39.50;;;;;;5076449;28;20277;-66
2022/02/15 04:59:48;;;;;;;;;;;18.60;39.50;;;;;;5076377;28;19916;-65
2022/02/15 05:02:13;;;;;;;;;;;18.60;39.50;;;;;;5091592;28;19920;-65
2022/02/15 05:04:51;;;;;;;;;;;18.60;39.50;;;;;;5076218;28;19959;-65
2022/02/15 05:07:17;;;;;;;;;;;18.60;39.50;;;;;;5075964;28;19908;-65
2022/02/15 05:09:43;;;;;;;;;;;18.60;39.50;;;;;;5076176;28;19953;-65
2022/02/15 05:12:09;;;;;;;;;;;18.60;39.50;;;;;;5075975;28;20384;-65
2022/02/15 05:14:34;;;;;;;;;;;18.60;39.50;;;;;;5075803;28;20384;-65
2022/02/15 05:17:00;;;;;;;;;;;18.60;39.50;;;;;;5076215;28;19912;-65
2022/02/15 05:19:25;;;;;;;;;;;18.60;39.40;;;;;;5091465;28;20383;-65
2022/02/15 05:21:50;;;;;;;;;;;18.60;39.40;;;;;;5091578;28;20387;-65
2022/02/15 05:24:16;;;;;;;;;;;18.70;39.40;;;;;;5074603;28;20016;-66
2022/02/15 05:26:41;;;;;;;;;;;18.70;39.40;;;;;;5075847;28;19955;-64
2022/02/15 05:29:07;;;;;;;;;;;18.70;39.40;;;;;;5075838;28;19909;-65
2022/02/15 05:31:32;;;;;;;;;;;18.70;39.40;;;;;;5075413;28;20000;-64
2022/02/15 05:33:58;;;;;;;;;;;18.70;39.30;;;;;;5075778;28;20360;-64
2022/02/15 05:36:23;;;;;;;;;;;18.80;39.30;;;;;;5075624;28;19936;-64
2022/02/15 05:38:49;;;;;;;;;;;18.80;39.30;;;;;;5075681;28;19999;-64
2022/02/15 05:41:14;;;;;;;;;;;18.80;39.30;;;;;;5075439;28;19908;-64
2022/02/15 05:43:39;;;;;;;;;;;18.80;39.30;;;;;;5075450;28;19984;-64
2022/02/15 05:46:05;;;;;;;;;;;18.80;39.30;;;;;;5075528;28;19909;-64
2022/02/15 05:48:30;;;;;;;;;;;18.80;39.30;;;;;;5074145;28;19920;-65
2022/02/15 05:50:56;;;;;;;;;;;18.80;39.20;;;;;;5074394;28;19916;-64
2022/02/15 05:53:22;;;;;;;;;;;18.80;39.20;;;;;;5075327;28;19916;-66
2022/02/15 05:55:48;;;;;;;;;;;18.90;39.30;;;;;;5075113;28;20352;-64
2022/02/15 05:58:15;;;;;;;;;;;18.80;39.30;;;;;;5075119;28;19915;-65
2022/02/15 06:00:40;;;;;;;;;;;18.90;39.20;;;;;;5075085;28;20006;-64
2022/02/15 06:04:09;;;;;;;;;;;18.90;39.20;;;;;;5073900;28;20019;-66
2022/02/15 06:05:51;;;;;;;;;;;18.90;39.20;;;;;;5075028;28;20378;-64
2022/02/15 06:08:17;;;;;;;;;;;18.90;39.30;;;;;;5075106;28;19908;-64
2022/02/15 06:10:43;;;;;;;;;;;18.90;39.20;;;;;;5075052;28;19949;-65
2022/02/15 06:13:09;;;;;;;;;;;18.90;39.30;;;;;;5074907;28;19942;-64
2022/02/15 06:15:34;;;;;;;;;;;18.90;39.30;;;;;;5074801;28;19913;-64
2022/02/15 06:18:00;;;;;;;;;;;18.90;39.30;;;;;;5074570;28;19913;-64
2022/02/15 06:20:25;;;;;;;;;;;18.90;39.20;;;;;;5090148;28;19915;-65
2022/02/15 06:22:50;;;;;;;;;;;18.90;39.30;;;;;;5074580;28;19962;-64
2022/02/15 06:25:16;;;;;;;;;;;18.90;39.20;;;;;;5074463;28;20050;-64
2022/02/15 06:27:41;;;;;;;;;;;18.90;39.30;;;;;;5074920;28;19908;-64
2022/02/15 06:30:07;;;;;;;;;;;19.00;39.30;;;;;;5074376;28;20276;-64
2022/02/15 06:32:32;;;;;;;;;;;18.90;39.30;;;;;;5074189;28;19908;-64
2022/02/15 06:34:58;;;;;;;;;;;18.90;39.30;;;;;;5074536;28;19912;-64
2022/02/15 06:37:23;;;;;;;;;;;19.00;39.30;;;;;;5074206;28;19908;-64
2022/02/15 06:39:49;;;;;;;;;;;19.00;39.30;;;;;;5074073;28;20330;-64
2022/02/15 06:42:14;;;;;;;;;;;19.00;39.30;;;;;;5073999;28;19969;-65
2022/02/15 06:44:40;;;;;;;;;;;18.90;39.30;;;;;;5073139;28;19975;-64
2022/02/15 06:47:06;;;;;;;;;;;19.00;39.30;;;;;;5074279;28;19962;-64
2022/02/15 06:49:31;;;;;;;;;;;19.00;39.30;;;;;;5073992;28;19912;-65
2022/02/15 06:51:57;;;;;;;;;;;19.00;39.30;;;;;;5073855;28;20377;-64
2022/02/15 06:54:22;;;;;;;;;;;19.00;39.30;;;;;;5073834;28;20003;-65
2022/02/15 06:56:48;;;;;;;;;;;19.00;39.30;;;;;;5073796;28;19908;-65
2022/02/15 06:59:14;;;;;;;;;;;19.00;39.30;;;;;;5073792;28;19908;-65
2022/02/15 07:01:41;;;;;;;;;;;19.00;39.30;;;;;;5072468;28;20326;-64
2022/02/15 07:04:07;;;;;;;;;;;19.00;39.30;;;;;;5074087;28;19923;-64
2022/02/15 07:06:32;;;;;;;;;;;19.00;39.30;;;;;;5073953;28;19908;-64
2022/02/15 07:08:58;;;;;;;;;;;19.00;39.30;;;;;;5073649;28;19915;-64
2022/02/15 07:11:23;;;;;;;;;;;19.00;39.30;;;;;;5073446;28;20324;-64
2022/02/15 07:13:50;;;;;;;;;;;19.00;39.30;;;;;;5082579;28;19912;-64
2022/02/15 07:16:16;;;;;;;;;;;19.10;39.20;;;;;;5085749;28;20046;-64
2022/02/15 07:18:43;;;;;;;;;;;19.10;39.10;;;;;;5076709;28;19909;-64
2022/02/15 07:21:08;;;;;;;;;;;19.10;39.20;;;;;;5081508;28;19916;-63
2022/02/15 07:23:34;;;;;;;;;;;19.10;39.30;;;;;;5092967;28;20363;-64
2022/02/15 07:25:59;;;;;;;;;;;19.10;39.30;;;;;;5092640;28;19947;-64
2022/02/15 07:28:25;;;;;;;;;;;19.10;39.30;;;;;;5084679;28;19985;-64
2022/02/15 07:30:50;;;;;;;;;;;19.10;39.30;;;;;;5091698;28;20372;-64
2022/02/15 07:33:16;;;;;;;;;;;19.10;39.30;;;;;;5065410;28;19918;-64
2022/02/15 07:35:41;;;;;;;;;;;19.10;39.30;;;;;;5087635;28;19923;-64
2022/02/15 07:38:06;;;;;;;;;;;19.10;39.30;;;;;;5092851;28;20359;-64
2022/02/15 07:40:32;;;;;;;;;;;19.10;39.30;;;;;;5092357;28;20245;-64
2022/02/15 07:42:57;;;;;;;;;;;19.10;39.30;;;;;;5092379;28;20329;-64
2022/02/15 07:45:23;;;;;;;;;;;19.10;39.30;;;;;;5091868;28;19924;-64
2022/02/15 07:47:49;;;;;;;;;;;19.20;39.30;;;;;;5092455;28;19915;-64
2022/02/15 07:50:16;;;;;;;;;;;19.20;39.30;;;;;;5092331;28;19912;-65
2022/02/15 07:52:41;;;;;;;;;;;19.10;39.40;;;;;;5091002;28;19908;-66
2022/02/15 07:55:07;;;;;;;;;;;19.10;39.40;;;;;;5088669;28;19938;-65
2022/02/15 07:57:33;;;;;;;;;;;19.20;39.40;;;;;;5091556;28;20363;-65
2022/02/15 07:59:58;;;;;;;;;;;19.20;39.40;;;;;;5091061;28;20291;-64
2022/02/15 08:02:23;;;;;;;;;;;19.20;39.40;;;;;;5091471;28;20025;-64
2022/02/15 08:04:49;;;;;;;;;;;19.20;39.40;;;;;;5072564;28;19965;-63
2022/02/15 08:07:14;;;;;;;;;;;19.20;39.40;;;;;;5091423;28;20007;-63
2022/02/15 08:09:40;;;;;;;;;;;19.20;39.40;;;;;;5088538;28;19942;-63
2022/02/15 08:12:11;;;;;;;;;;;19.20;39.40;;;;;;5091297;28;20282;-63
2022/02/15 08:14:37;;;;;;;;;;;19.30;39.40;;;;;;5091310;28;19912;-63
2022/02/15 08:17:03;;;;;;;;;;;19.30;39.40;;;;;;5091944;28;20007;-63
2022/02/15 08:19:28;;;;;;;;;;;19.20;39.40;;;;;;5091085;28;19960;-62
2022/02/15 08:21:56;;;;;;;;;;;19.20;39.40;;;;;;5090743;28;19908;-62
2022/02/15 08:24:22;;;;;;;;;;;19.30;39.40;;;;;;5090728;28;20004;-63
2022/02/15 08:26:48;;;;;;;;;;;19.30;39.50;;;;;;5091634;28;19908;-63
2022/02/15 08:29:14;;;;;;;;;;;19.30;39.50;;;;;;5072774;28;19958;-63
2022/02/15 08:31:39;;;;;;;;;;;19.30;39.50;;;;;;5091020;28;20014;-63
2022/02/15 08:34:05;;;;;;;;;;;19.30;39.50;;;;;;5071927;28;20075;-62
2022/02/15 08:36:30;;;;;;;;;;;19.40;39.60;;;;;;5090753;28;19995;-62
2022/02/15 08:38:56;;;;;;;;;;;19.40;39.50;;;;;;5072926;28;19908;-64
2022/02/15 08:41:21;;;;;;;;;;;19.40;39.50;;;;;;5091216;28;19966;-64
2022/02/15 08:43:46;;;;;;;;;;;19.40;39.50;;;;;;5090634;28;20690;-63
2022/02/15 08:46:12;;;;;;;;;;;19.40;39.60;;;;;;5090250;28;19916;-63
2022/02/15 08:48:37;;;;;;;;;;;19.40;39.60;;;;;;5091091;28;19997;-63
2022/02/15 08:51:03;;;;;;;;;;;19.40;39.70;;;;;;5072629;28;19934;-64
2022/02/15 08:53:28;;;;;;;;;;;19.40;39.70;;;;;;5090778;28;19996;-64
2022/02/15 08:55:54;;;;;;;;;;;19.40;39.60;;;;;;5090048;28;19912;-62
2022/02/15 08:58:20;;;;;;;;;;;19.50;39.70;;;;;;5090896;28;19919;-63
2022/02/15 09:00:45;;;;;;;;;;;19.40;39.70;;;;;;5090139;28;19912;-63
2022/02/15 09:03:11;;;;;;;;;;;19.50;39.70;;;;;;5090634;28;19909;-64
2022/02/15 09:05:36;;;;;;;;;;;19.50;39.70;;;;;;5090197;28;19971;-63
2022/02/15 09:08:02;;;;;;;;;;;19.00;39.90;;;;;;5093183;28;20334;-63
2022/02/15 09:10:27;;;;;;;;;;;19.10;40.30;;;;;;5075917;28;19912;-64
2022/02/15 09:12:53;;;;;;;;;;;19.20;40.20;;;;;;5094346;28;19939;-66
2022/02/15 09:15:18;;;;;;;;;;;19.30;40.00;;;;;;5093718;28;19912;-65
2022/02/15 09:17:43;;;;;;;;;;;19.30;39.90;;;;;;5094419;28;20415;-63
2022/02/15 09:20:10;;;;;;;;;;;19.40;39.90;;;;;;5094053;28;19916;-63
2022/02/15 09:22:37;;;;;;;;;;;19.40;39.80;;;;;;5094071;28;19916;-65
2022/02/15 09:25:03;;;;;;;;;;;19.40;39.80;;;;;;5093298;28;19931;-65
2022/02/15 09:27:28;;;;;;;;;;;19.40;39.80;;;;;;5093827;28;19908;-64
2022/02/15 09:29:54;;;;;;;;;;;19.40;39.80;;;;;;5094390;28;19997;-65
2022/02/15 09:32:19;;;;;;;;;;;19.50;39.80;;;;;;5094325;28;19992;-64
2022/02/15 09:34:45;;;;;;;;;;;19.50;39.80;;;;;;5093493;28;19947;-63
2022/02/15 09:37:10;;;;;;;;;;;19.50;39.80;;;;;;5094303;28;19912;-64
2022/02/15 09:39:36;;;;;;;;;;;19.50;39.80;;;;;;5093291;28;19920;-63
2022/02/15 09:42:01;;;;;;;;;;;19.50;39.80;;;;;;5075848;28;19949;-62
2022/02/15 09:44:27;;;;;;;;;;;19.50;39.80;;;;;;5093457;28;20000;-62
2022/02/15 09:46:53;;;;;;;;;;;19.50;39.80;;;;;;5093588;28;19909;-62
2022/02/15 09:52:03;;;;;;;;;;;19.50;39.90;;;;;;5094456;28;20480;-63
2022/02/15 09:54:29;;;;;;;;;;;19.50;39.80;;;;;;5092691;28;19995;-63
2022/02/15 09:56:54;;;;;;;;;;;19.50;39.80;;;;;;5092740;28;19908;-62
2022/02/15 09:59:20;;;;;;;;;;;19.10;39.60;;;;;;5093122;28;20016;-63
2022/02/15 10:01:46;;;;;;;;;;;18.50;41.30;;;;;;5093422;28;20709;-63
2022/02/15 10:04:12;;;;;;;;;;;18.90;41.10;;;;;;5093272;28;19923;-64
2022/02/15 10:06:40;;;;;;;;;;;19.20;40.50;;;;;;5093029;28;19958;-64
2022/02/15 10:09:06;;;;;;;;;;;19.40;40.20;;;;;;5081839;28;19908;-63
2022/02/15 10:11:42;;;;;;;;;;;19.50;40.00;;;;;;5093735;28;19946;-63
2022/02/15 10:14:08;;;;;;;;;;;19.50;40.00;;;;;;5093095;28;19908;-63
2022/02/15 10:16:46;;;;;;;;;;;19.50;39.90;;;;;;5094071;28;19908;-64
2022/02/15 10:19:19;;;;;;;;;;;19.50;39.90;;;;;;5092272;28;19908;-64
2022/02/15 10:21:45;;;;;;;;;;;19.50;39.90;;;;;;5094146;28;19908;-64
2022/02/15 10:24:14;;;;;;;;;;;19.60;40.00;;;;;;5074458;28;19964;-62
2022/02/15 10:26:40;;;;;;;;;;;19.50;40.10;;;;;;5094089;28;19960;-63
2022/02/15 10:29:05;;;;;;;;;;;19.60;40.20;;;;;;5093216;28;20003;-63
2022/02/15 10:31:38;;;;;;;;;;;19.60;40.00;;;;;;5093487;28;19908;-64
2022/02/15 10:34:04;;;;;;;;;;;19.70;40.00;;;;;;5093059;28;19912;-63
2022/02/15 10:36:30;;;;;;;;;;;19.70;40.10;;;;;;5093417;28;20321;-63
2022/02/15 10:38:57;;;;;;;;;;;19.70;40.00;;;;;;5093290;28;19998;-64
2022/02/15 10:41:23;;;;;;;;;;;19.70;40.00;;;;;;5092507;28;19912;-63
2022/02/15 10:43:56;;;;;;;;;;;19.70;40.10;;;;;;5093098;28;19919;-64
2022/02/15 10:46:25;;;;;;;;;;;19.70;40.10;;;;;;5093529;28;19916;-65
2022/02/15 10:48:52;;;;;;;;;;;19.70;40.20;;;;;;5092728;28;20286;-65
2022/02/15 10:51:18;;;;;;;;;;;19.70;40.20;;;;;;5093172;28;19981;-65
2022/02/15 10:53:44;;;;;;;;;;;19.70;40.30;;;;;;5093463;28;19946;-64
2022/02/15 10:56:10;;;;;;;;;;;19.70;40.30;;;;;;5092872;28;19912;-64
2022/02/15 10:58:35;;;;;;;;;;;19.70;40.40;;;;;;5092858;28;19954;-63
2022/02/15 11:01:03;;;;;;;;;;;19.50;40.00;;;;;;5092005;28;19997;-63
2022/02/15 11:03:30;;;;;;;;;;;19.30;40.60;;;;;;5084723;28;19996;-64
2022/02/15 11:05:56;;;;;;;;;;;19.30;40.80;;;;;;5089873;28;19997;-64
2022/02/15 11:08:22;;;;;;;;;;;19.40;40.70;;;;;;5096706;28;19912;-64
2022/02/15 11:10:59;;;;;;;;;;;19.50;40.70;;;;;;5097013;28;20255;-64
2022/02/15 11:13:26;;;;;;;;;;;19.50;40.60;;;;;;5074703;28;19919;-63
2022/02/15 11:15:52;;;;;;;;;;;19.60;40.50;;;;;;5088329;28;19916;-64
2022/02/15 11:18:31;;;;;;;;;;;19.60;40.40;;;;;;5092817;28;19952;-64
2022/02/15 11:20:58;;;;;;;;;;;19.70;40.50;;;;;;5078138;28;19947;-64
2022/02/15 11:23:25;;;;;;;;;;;19.70;40.70;;;;;;5079720;28;19935;-63
2022/02/15 11:26:04;;;;;;;;;;;19.70;40.60;;;;;;5077638;28;19921;-63
2022/02/15 11:28:30;;;;;;;;;;;19.70;40.60;;;;;;5071539;28;20019;-61
2022/02/15 11:30:56;;;;;;;;;;;19.70;40.70;;;;;;5087624;28;20355;-64
2022/02/15 11:33:24;;;;;;;;;;;19.70;40.60;;;;;;5077081;28;19970;-65
2022/02/15 11:35:53;;;;;;;;;;;19.70;40.90;;;;;;5086261;28;19980;-65
2022/02/15 11:38:19;;;;;;;;;;;18.20;40.20;;;;;;5083766;28;19916;-65
2022/02/15 11:40:54;;;;;;;;;;;18.10;41.60;;;;;;5079090;28;19973;-63
2022/02/15 11:43:20;;;;;;;;;;;18.00;41.30;;;;;;5071102;28;19908;-65
2022/02/15 11:45:45;;;;;;;;;;;18.10;40.70;;;;;;5086943;28;20412;-64
2022/02/15 11:48:11;;;;;;;;;;;18.50;39.90;;;;;;5078079;28;20395;-64
2022/02/15 11:50:47;;;;;;;;;;;18.50;39.10;;;;;;5084705;28;19912;-64
2022/02/15 11:53:13;;;;;;;;;;;18.60;39.70;;;;;;5082478;28;20283;-63
2022/02/15 11:55:39;;;;;;;;;;;18.50;38.60;;;;;;5089854;28;20416;-65
2022/02/15 11:58:11;;;;;;;;;;;18.70;38.40;;;;;;5090874;28;20041;-64
2022/02/15 12:00:37;;;;;;;;;;;18.40;37.80;;;;;;5086176;28;19954;-63
2022/02/15 12:03:03;;;;;;;;;;;18.30;38.00;;;;;;5085294;28;19914;-64
2022/02/15 12:05:30;;;;;;;;;;;18.20;37.50;;;;;;5084278;28;19916;-64
2022/02/15 12:07:56;;;;;;;;;;;17.90;37.70;;;;;;5082041;28;19913;-63
2022/02/15 12:10:24;;;;;;;;;;;18.00;37.80;;;;;;5072095;28;19990;-64
2022/02/15 12:12:52;;;;;;;;;;;18.10;37.60;;;;;;5072604;28;20390;-63
2022/02/15 12:15:17;;;;;;;;;;;18.10;37.00;;;;;;5071338;28;20443;-63
2022/02/15 12:17:43;;;;;;;;;;;18.00;36.90;;;;;;5075865;28;19954;-63
2022/02/15 12:20:20;;;;;;;;;;;18.00;36.90;;;;;;5083709;28;20348;-63
2022/02/15 12:22:48;;;;;;;;;;;17.60;37.50;;;;;;5091686;28;20445;-63
2022/02/15 12:25:13;;;;;;;;;;;17.60;37.60;;;;;;5091644;28;19928;-64
2022/02/15 12:27:40;;;;;;;;;;;17.50;37.80;;;;;;5089986;28;20072;-64
2022/02/15 12:30:06;;;;;;;;;;;17.60;37.70;;;;;;5092111;28;19908;-63
2022/02/15 12:32:32;;;;;;;;;;;17.60;37.80;;;;;;5088965;28;20253;-64
2022/02/15 12:34:58;;;;;;;;;;;17.50;37.70;;;;;;5061836;28;19912;-64
2022/02/15 12:37:24;;;;;;;;;;;17.60;37.60;;;;;;5078194;28;19920;-64
2022/02/15 12:39:51;;;;;;;;;;;17.80;37.50;;;;;;5091203;28;19909;-64
2022/02/15 12:42:18;;;;;;;;;;;17.70;37.10;;;;;;5088431;28;20032;-62
2022/02/15 12:44:54;;;;;;;;;;;17.60;37.00;;;;;;5076742;28;20339;-63
2022/02/15 12:47:20;;;;;;;;;;;17.70;37.00;;;;;;5093635;28;19934;-61
2022/02/15 12:49:45;;;;;;;;;;;17.50;36.90;;;;;;5095007;28;20356;-62
2022/02/15 12:52:11;;;;;;;;;;;17.40;37.30;;;;;;5108591;28;20333;-63
2022/02/15 12:54:38;;;;;;;;;;;17.60;36.00;;;;;;5074260;28;20322;-65
2022/02/15 12:57:13;;;;;;;;;;;17.50;35.90;;;;;;5079095;28;19919;-64
2022/02/15 12:59:39;;;;;;;;;;;17.50;35.70;;;;;;5090848;28;19990;-64
2022/02/15 13:02:04;;;;;;;;;;;17.50;35.60;;;;;;5085321;28;20407;-64
2022/02/15 13:04:30;;;;;;;;;;;17.70;35.60;;;;;;5077716;28;19924;-64
2022/02/15 13:06:56;;;;;;;;;;;17.60;35.10;;;;;;5059668;28;19923;-63
2022/02/15 13:09:30;;;;;;;;;;;17.40;34.70;;;;;;5093775;28;20053;-62
2022/02/15 13:11:56;;;;;;;;;;;17.80;35.70;;;;;;5094449;28;19912;-62
2022/02/15 13:14:29;;;;;;;;;;;18.30;35.70;;;;;;5091046;28;19912;-61
2022/02/15 13:16:56;;;;;;;;;;;18.60;35.90;;;;;;5087577;28;20022;-62
2022/02/15 13:19:31;;;;;;;;;;;18.80;35.70;;;;;;5092650;28;19912;-62
2022/02/15 13:21:57;;;;;;;;;;;19.00;35.50;;;;;;5097067;28;19961;-62
2022/02/15 13:24:22;;;;;;;;;;;19.00;35.30;;;;;;5091983;28;19928;-62
2022/02/15 13:26:48;;;;;;;;;;;19.10;35.40;;;;;;5094329;28;19963;-64
2022/02/15 13:29:27;;;;;;;;;;;19.10;35.40;;;;;;5103637;28;19912;-63
2022/02/15 13:31:54;;;;;;;;;;;19.10;35.60;;;;;;5081767;28;19965;-63
2022/02/15 13:34:29;;;;;;;;;;;19.20;35.70;;;;;;5088701;28;19973;-62
2022/02/15 13:36:58;;;;;;;;;;;19.20;35.70;;;;;;5094192;28;19992;-62
2022/02/15 13:39:23;;;;;;;;;;;19.40;35.30;;;;;;5094041;28;20287;-63
2022/02/15 13:41:49;;;;;;;;;;;19.50;35.40;;;;;;5072407;28;19915;-62
2022/02/15 13:44:15;;;;;;;;;;;19.40;35.60;;;;;;5076098;28;19912;-63
2022/02/15 13:46:40;;;;;;;;;;;19.40;35.70;;;;;;5072867;28;19917;-61
2022/02/15 13:49:06;;;;;;;;;;;19.40;35.80;;;;;;5073098;28;19909;-62
2022/02/15 13:51:31;;;;;;;;;;;19.40;35.90;;;;;;5086804;28;19999;-62
2022/02/15 13:54:01;;;;;;;;;;;19.50;35.90;;;;;;5092651;28;19915;-61
2022/02/15 13:56:27;;;;;;;;;;;19.50;35.80;;;;;;5081494;28;20020;-62
2022/02/15 13:58:52;;;;;;;;;;;19.50;35.70;;;;;;5093346;28;19912;-61
2022/02/15 14:01:18;;;;;;;;;;;19.60;35.80;;;;;;5092879;28;19927;-61
2022/02/15 14:03:45;;;;;;;;;;;19.60;35.80;;;;;;5092930;28;19914;-61
2022/02/15 14:06:11;;;;;;;;;;;19.50;36.00;;;;;;5091351;28;20389;-61
2022/02/15 14:08:39;;;;;;;;;;;19.50;36.10;;;;;;5092671;28;19908;-62
2022/02/15 14:11:05;;;;;;;;;;;19.60;36.10;;;;;;5092939;28;19962;-61
2022/02/15 14:13:30;;;;;;;;;;;19.50;36.00;;;;;;5088744;28;19916;-61
2022/02/15 14:15:58;;;;;;;;;;;19.60;36.00;;;;;;5074903;28;19908;-61
2022/02/15 14:18:23;;;;;;;;;;;19.60;36.10;;;;;;5087256;28;19963;-61